sensor_id;sensor_type;location;lat;lon;timestamp;P1;durP1;ratioP1;P2;durP2;ratioP2
21258;SDS011;10787;53.364;-1.480;2023-05-16T00:00:45;6.57;;;1.70;;
21258;SDS011;10787;53.364;-1.480;2023-05-16T00:03:31;7.10;;;1.40;;
21258;SDS011;10787;53.364;-1.480;2023-05-16T00:06:15;5.97;;;1.73;;
21258;SDS011;10787;53.364;-1.480;2023-05-16T00:09:00;7.77;;;1.70;;
21258;SDS011;10787;53.364;-1.480;2023-05-16T00:11:44;6.80;;;1.83;;
21258;SDS011;10787;53.364;-1.480;2023-05-16T00:14:31;9.37;;;1.60;;
21258;SDS011;10787;53.364;-1.480;2023-05-16T00:17:15;5.77;;;1.53;;
21258;SDS011;10787;53.364;-1.480;2023-05-16T00:20:00;8.43;;;1.60;;
21258;SDS011;10787;53.364;-1.480;2023-05-16T00:22:53;7.30;;;1.73;;
21258;SDS011;10787;53.364;-1.480;2023-05-16T00:25:38;8.57;;;1.80;;
21258;SDS011;10787;53.364;-1.480;2023-05-16T00:28:23;7.53;;;2.00;;
21258;SDS011;10787;53.364;-1.480;2023-05-16T00:31:07;9.17;;;1.93;;
21258;SDS011;10787;53.364;-1.480;2023-05-16T00:33:52;7.10;;;1.90;;
21258;SDS011;10787;53.364;-1.480;2023-05-16T00:36:37;6.60;;;1.80;;
21258;SDS011;10787;53.364;-1.480;2023-05-16T00:39:21;8.17;;;2.00;;
21258;SDS011;10787;53.364;-1.480;2023-05-16T00:42:06;9.77;;;2.00;;
21258;SDS011;10787;53.364;-1.480;2023-05-16T00:44:51;7.67;;;1.73;;
21258;SDS011;10787;53.364;-1.480;2023-05-16T00:47:35;10.90;;;1.83;;
21258;SDS011;10787;53.364;-1.480;2023-05-16T00:50:19;8.83;;;1.70;;
21258;SDS011;10787;53.364;-1.480;2023-05-16T00:53:04;8.23;;;1.83;;
21258;SDS011;10787;53.364;-1.480;2023-05-16T00:55:48;8.07;;;1.90;;
21258;SDS011;10787;53.364;-1.480;2023-05-16T00:58:33;7.83;;;1.90;;
21258;SDS011;10787;53.364;-1.480;2023-05-16T01:01:19;6.90;;;1.67;;
21258;SDS011;10787;53.364;-1.480;2023-05-16T01:04:07;8.20;;;1.73;;
21258;SDS011;10787;53.364;-1.480;2023-05-16T01:06:51;8.20;;;1.83;;
21258;SDS011;10787;53.364;-1.480;2023-05-16T01:09:36;7.00;;;1.70;;
21258;SDS011;10787;53.364;-1.480;2023-05-16T01:18:07;9.33;;;1.93;;
21258;SDS011;10787;53.364;-1.480;2023-05-16T01:20:57;6.57;;;2.00;;
21258;SDS011;10787;53.364;-1.480;2023-05-16T01:23:59;9.80;;;1.90;;
21258;SDS011;10787;53.364;-1.480;2023-05-16T01:26:51;6.50;;;1.60;;
21258;SDS011;10787;53.364;-1.480;2023-05-16T01:29:38;5.07;;;1.70;;
21258;SDS011;10787;53.364;-1.480;2023-05-16T01:32:23;6.87;;;1.60;;
21258;SDS011;10787;53.364;-1.480;2023-05-16T01:35:08;5.87;;;1.70;;
21258;SDS011;10787;53.364;-1.480;2023-05-16T01:37:57;9.10;;;1.83;;
21258;SDS011;10787;53.364;-1.480;2023-05-16T01:43:59;8.00;;;2.17;;
21258;SDS011;10787;53.364;-1.480;2023-05-16T01:46:47;9.73;;;2.27;;
21258;SDS011;10787;53.364;-1.480;2023-05-16T01:55:53;9.47;;;1.93;;
21258;SDS011;10787;53.364;-1.480;2023-05-16T01:58:40;7.23;;;1.90;;
21258;SDS011;10787;53.364;-1.480;2023-05-16T02:01:26;11.17;;;2.43;;
21258;SDS011;10787;53.364;-1.480;2023-05-16T02:04:10;11.00;;;2.50;;
21258;SDS011;10787;53.364;-1.480;2023-05-16T02:06:57;8.37;;;2.07;;
21258;SDS011;10787;53.364;-1.480;2023-05-16T02:09:43;7.97;;;2.03;;
21258;SDS011;10787;53.364;-1.480;2023-05-16T02:12:27;6.30;;;1.77;;
21258;SDS011;10787;53.364;-1.480;2023-05-16T02:15:11;9.20;;;2.00;;
21258;SDS011;10787;53.364;-1.480;2023-05-16T02:17:57;10.40;;;2.20;;
21258;SDS011;10787;53.364;-1.480;2023-05-16T02:20:44;11.47;;;2.33;;
21258;SDS011;10787;53.364;-1.480;2023-05-16T02:23:28;9.60;;;2.20;;
21258;SDS011;10787;53.364;-1.480;2023-05-16T02:26:12;6.67;;;1.77;;
21258;SDS011;10787;53.364;-1.480;2023-05-16T02:28:57;6.87;;;1.83;;
21258;SDS011;10787;53.364;-1.480;2023-05-16T02:31:41;7.57;;;2.13;;
21258;SDS011;10787;53.364;-1.480;2023-05-16T02:34:25;10.37;;;2.10;;
21258;SDS011;10787;53.364;-1.480;2023-05-16T02:37:09;8.90;;;2.10;;
21258;SDS011;10787;53.364;-1.480;2023-05-16T02:39:54;9.63;;;1.90;;
21258;SDS011;10787;53.364;-1.480;2023-05-16T02:42:47;7.73;;;1.80;;
21258;SDS011;10787;53.364;-1.480;2023-05-16T02:45:32;6.87;;;1.90;;
21258;SDS011;10787;53.364;-1.480;2023-05-16T02:48:16;13.10;;;2.73;;
21258;SDS011;10787;53.364;-1.480;2023-05-16T02:51:00;9.23;;;2.40;;
21258;SDS011;10787;53.364;-1.480;2023-05-16T02:53:45;10.00;;;2.40;;
21258;SDS011;10787;53.364;-1.480;2023-05-16T02:56:29;10.63;;;2.30;;
21258;SDS011;10787;53.364;-1.480;2023-05-16T02:59:13;8.53;;;2.20;;
21258;SDS011;10787;53.364;-1.480;2023-05-16T03:01:58;10.17;;;2.50;;
21258;SDS011;10787;53.364;-1.480;2023-05-16T03:04:42;9.80;;;2.43;;
21258;SDS011;10787;53.364;-1.480;2023-05-16T03:07:26;5.90;;;2.10;;
21258;SDS011;10787;53.364;-1.480;2023-05-16T03:10:10;8.60;;;2.53;;
21258;SDS011;10787;53.364;-1.480;2023-05-16T03:12:54;6.57;;;2.87;;
21258;SDS011;10787;53.364;-1.480;2023-05-16T03:15:38;10.70;;;3.20;;
21258;SDS011;10787;53.364;-1.480;2023-05-16T03:18:23;7.77;;;2.97;;
21258;SDS011;10787;53.364;-1.480;2023-05-16T03:21:07;9.67;;;3.30;;
21258;SDS011;10787;53.364;-1.480;2023-05-16T03:23:51;11.93;;;3.20;;
21258;SDS011;10787;53.364;-1.480;2023-05-16T03:26:37;13.13;;;3.20;;
21258;SDS011;10787;53.364;-1.480;2023-05-16T03:29:22;11.90;;;3.03;;
21258;SDS011;10787;53.364;-1.480;2023-05-16T03:32:06;11.60;;;3.17;;
21258;SDS011;10787;53.364;-1.480;2023-05-16T03:34:51;8.53;;;3.33;;
21258;SDS011;10787;53.364;-1.480;2023-05-16T03:37:35;8.70;;;3.20;;
21258;SDS011;10787;53.364;-1.480;2023-05-16T03:40:19;7.83;;;3.10;;
21258;SDS011;10787;53.364;-1.480;2023-05-16T03:43:04;8.13;;;2.87;;
21258;SDS011;10787;53.364;-1.480;2023-05-16T03:45:49;9.07;;;2.93;;
21258;SDS011;10787;53.364;-1.480;2023-05-16T03:48:33;7.23;;;3.00;;
21258;SDS011;10787;53.364;-1.480;2023-05-16T03:51:17;7.97;;;3.00;;
21258;SDS011;10787;53.364;-1.480;2023-05-16T03:54:01;7.20;;;2.67;;
21258;SDS011;10787;53.364;-1.480;2023-05-16T03:56:45;8.63;;;2.60;;
21258;SDS011;10787;53.364;-1.480;2023-05-16T03:59:29;10.67;;;2.90;;
21258;SDS011;10787;53.364;-1.480;2023-05-16T04:02:13;9.90;;;2.77;;
21258;SDS011;10787;53.364;-1.480;2023-05-16T04:04:57;8.97;;;2.80;;
21258;SDS011;10787;53.364;-1.480;2023-05-16T04:07:42;11.97;;;2.67;;
21258;SDS011;10787;53.364;-1.480;2023-05-16T04:10:26;8.77;;;2.87;;
21258;SDS011;10787;53.364;-1.480;2023-05-16T04:13:11;10.70;;;2.50;;
21258;SDS011;10787;53.364;-1.480;2023-05-16T04:15:55;7.90;;;2.50;;
21258;SDS011;10787;53.364;-1.480;2023-05-16T04:18:39;9.10;;;2.60;;
21258;SDS011;10787;53.364;-1.480;2023-05-16T04:21:24;9.17;;;2.47;;
21258;SDS011;10787;53.364;-1.480;2023-05-16T04:24:11;6.47;;;2.40;;
21258;SDS011;10787;53.364;-1.480;2023-05-16T04:26:55;6.33;;;2.40;;
21258;SDS011;10787;53.364;-1.480;2023-05-16T04:29:40;6.83;;;2.20;;
21258;SDS011;10787;53.364;-1.480;2023-05-16T04:32:24;9.30;;;2.43;;
21258;SDS011;10787;53.364;-1.480;2023-05-16T04:35:11;3.97;;;2.03;;
21258;SDS011;10787;53.364;-1.480;2023-05-16T04:37:55;6.30;;;2.00;;
21258;SDS011;10787;53.364;-1.480;2023-05-16T04:40:40;7.73;;;2.40;;
21258;SDS011;10787;53.364;-1.480;2023-05-16T04:43:24;8.40;;;2.23;;
21258;SDS011;10787;53.364;-1.480;2023-05-16T04:46:09;7.80;;;2.37;;
21258;SDS011;10787;53.364;-1.480;2023-05-16T04:48:54;6.63;;;1.97;;
21258;SDS011;10787;53.364;-1.480;2023-05-16T04:51:39;5.53;;;2.00;;
21258;SDS011;10787;53.364;-1.480;2023-05-16T04:54:23;6.93;;;2.07;;
21258;SDS011;10787;53.364;-1.480;2023-05-16T04:57:09;6.70;;;1.93;;
21258;SDS011;10787;53.364;-1.480;2023-05-16T04:59:53;7.90;;;2.40;;
21258;SDS011;10787;53.364;-1.480;2023-05-16T05:02:38;9.10;;;1.73;;
21258;SDS011;10787;53.364;-1.480;2023-05-16T05:05:23;6.10;;;1.73;;
21258;SDS011;10787;53.364;-1.480;2023-05-16T05:08:07;7.00;;;1.77;;
21258;SDS011;10787;53.364;-1.480;2023-05-16T05:10:52;6.47;;;2.07;;
21258;SDS011;10787;53.364;-1.480;2023-05-16T05:13:38;6.10;;;1.90;;
21258;SDS011;10787;53.364;-1.480;2023-05-16T05:16:22;7.50;;;1.80;;
21258;SDS011;10787;53.364;-1.480;2023-05-16T05:19:06;9.33;;;2.03;;
21258;SDS011;10787;53.364;-1.480;2023-05-16T05:21:51;6.10;;;1.70;;
21258;SDS011;10787;53.364;-1.480;2023-05-16T05:24:35;4.17;;;1.80;;
21258;SDS011;10787;53.364;-1.480;2023-05-16T05:27:20;7.57;;;1.93;;
21258;SDS011;10787;53.364;-1.480;2023-05-16T05:30:05;7.93;;;1.77;;
21258;SDS011;10787;53.364;-1.480;2023-05-16T05:32:49;8.97;;;1.83;;
21258;SDS011;10787;53.364;-1.480;2023-05-16T05:35:34;6.37;;;1.80;;
21258;SDS011;10787;53.364;-1.480;2023-05-16T05:38:19;5.10;;;1.63;;
21258;SDS011;10787;53.364;-1.480;2023-05-16T05:41:04;7.03;;;1.80;;
21258;SDS011;10787;53.364;-1.480;2023-05-16T05:43:49;5.73;;;1.70;;
21258;SDS011;10787;53.364;-1.480;2023-05-16T05:46:34;7.80;;;1.47;;
21258;SDS011;10787;53.364;-1.480;2023-05-16T05:49:19;9.90;;;1.80;;
21258;SDS011;10787;53.364;-1.480;2023-05-16T05:52:05;9.27;;;2.00;;
21258;SDS011;10787;53.364;-1.480;2023-05-16T05:54:49;3.93;;;1.40;;
21258;SDS011;10787;53.364;-1.480;2023-05-16T05:57:34;4.57;;;1.37;;
21258;SDS011;10787;53.364;-1.480;2023-05-16T06:00:18;5.63;;;1.57;;
21258;SDS011;10787;53.364;-1.480;2023-05-16T06:03:03;3.23;;;1.30;;
21258;SDS011;10787;53.364;-1.480;2023-05-16T06:05:47;6.67;;;1.53;;
21258;SDS011;10787;53.364;-1.480;2023-05-16T06:08:32;4.73;;;1.23;;
21258;SDS011;10787;53.364;-1.480;2023-05-16T06:11:17;2.90;;;1.30;;
21258;SDS011;10787;53.364;-1.480;2023-05-16T06:14:01;6.27;;;1.30;;
21258;SDS011;10787;53.364;-1.480;2023-05-16T06:16:45;3.97;;;1.00;;
21258;SDS011;10787;53.364;-1.480;2023-05-16T06:19:30;5.90;;;1.50;;
21258;SDS011;10787;53.364;-1.480;2023-05-16T06:22:14;4.17;;;1.40;;
21258;SDS011;10787;53.364;-1.480;2023-05-16T06:24:57;5.00;;;1.40;;
21258;SDS011;10787;53.364;-1.480;2023-05-16T06:27:42;5.73;;;1.40;;
21258;SDS011;10787;53.364;-1.480;2023-05-16T06:30:26;3.70;;;1.23;;
21258;SDS011;10787;53.364;-1.480;2023-05-16T06:33:10;5.30;;;1.50;;
21258;SDS011;10787;53.364;-1.480;2023-05-16T06:35:55;4.50;;;1.57;;
21258;SDS011;10787;53.364;-1.480;2023-05-16T06:38:39;4.57;;;1.40;;
21258;SDS011;10787;53.364;-1.480;2023-05-16T06:41:23;3.50;;;1.17;;
21258;SDS011;10787;53.364;-1.480;2023-05-16T06:44:09;6.73;;;1.40;;
21258;SDS011;10787;53.364;-1.480;2023-05-16T06:46:54;5.23;;;1.20;;
21258;SDS011;10787;53.364;-1.480;2023-05-16T06:49:38;3.70;;;1.40;;
21258;SDS011;10787;53.364;-1.480;2023-05-16T06:52:23;4.30;;;1.30;;
21258;SDS011;10787;53.364;-1.480;2023-05-16T06:55:07;7.50;;;1.70;;
21258;SDS011;10787;53.364;-1.480;2023-05-16T06:57:52;8.30;;;1.70;;
21258;SDS011;10787;53.364;-1.480;2023-05-16T07:00:36;8.80;;;1.67;;
21258;SDS011;10787;53.364;-1.480;2023-05-16T07:03:20;5.57;;;1.30;;
21258;SDS011;10787;53.364;-1.480;2023-05-16T07:06:05;4.07;;;1.27;;
21258;SDS011;10787;53.364;-1.480;2023-05-16T07:08:50;5.77;;;1.70;;
21258;SDS011;10787;53.364;-1.480;2023-05-16T07:11:34;5.50;;;1.80;;
21258;SDS011;10787;53.364;-1.480;2023-05-16T07:14:18;7.23;;;1.80;;
21258;SDS011;10787;53.364;-1.480;2023-05-16T07:17:02;6.60;;;1.77;;
21258;SDS011;10787;53.364;-1.480;2023-05-16T07:19:47;6.43;;;1.60;;
21258;SDS011;10787;53.364;-1.480;2023-05-16T07:22:32;4.90;;;1.53;;
21258;SDS011;10787;53.364;-1.480;2023-05-16T07:25:16;5.33;;;1.73;;
21258;SDS011;10787;53.364;-1.480;2023-05-16T07:28:01;8.70;;;1.63;;
21258;SDS011;10787;53.364;-1.480;2023-05-16T07:30:45;4.80;;;1.77;;
21258;SDS011;10787;53.364;-1.480;2023-05-16T07:33:30;4.50;;;1.33;;
21258;SDS011;10787;53.364;-1.480;2023-05-16T07:36:14;3.97;;;1.40;;
21258;SDS011;10787;53.364;-1.480;2023-05-16T07:38:58;9.40;;;1.88;;
21258;SDS011;10787;53.364;-1.480;2023-05-16T07:41:43;6.13;;;1.80;;
21258;SDS011;10787;53.364;-1.480;2023-05-16T07:44:28;5.50;;;1.83;;
21258;SDS011;10787;53.364;-1.480;2023-05-16T07:47:12;5.90;;;1.83;;
21258;SDS011;10787;53.364;-1.480;2023-05-16T07:49:56;5.00;;;2.00;;
21258;SDS011;10787;53.364;-1.480;2023-05-16T07:52:40;6.13;;;2.23;;
21258;SDS011;10787;53.364;-1.480;2023-05-16T07:55:24;5.25;;;2.45;;
21258;SDS011;10787;53.364;-1.480;2023-05-16T07:58:09;7.38;;;2.60;;
21258;SDS011;10787;53.364;-1.480;2023-05-16T08:00:53;7.07;;;2.70;;
21258;SDS011;10787;53.364;-1.480;2023-05-16T08:03:38;4.88;;;2.55;;
21258;SDS011;10787;53.364;-1.480;2023-05-16T08:06:22;7.90;;;3.05;;
21258;SDS011;10787;53.364;-1.480;2023-05-16T08:09:07;7.53;;;3.00;;
21258;SDS011;10787;53.364;-1.480;2023-05-16T08:11:51;5.68;;;3.08;;
21258;SDS011;10787;53.364;-1.480;2023-05-16T08:14:36;9.38;;;3.15;;
21258;SDS011;10787;53.364;-1.480;2023-05-16T08:17:21;7.78;;;3.08;;
21258;SDS011;10787;53.364;-1.480;2023-05-16T08:20:05;9.50;;;3.10;;
21258;SDS011;10787;53.364;-1.480;2023-05-16T08:22:50;6.32;;;3.10;;
21258;SDS011;10787;53.364;-1.480;2023-05-16T08:25:35;7.32;;;3.22;;
21258;SDS011;10787;53.364;-1.480;2023-05-16T08:28:20;10.70;;;3.42;;
21258;SDS011;10787;53.364;-1.480;2023-05-16T08:31:04;7.32;;;2.75;;
21258;SDS011;10787;53.364;-1.480;2023-05-16T08:33:48;6.78;;;3.35;;
21258;SDS011;10787;53.364;-1.480;2023-05-16T08:36:33;8.30;;;3.13;;
21258;SDS011;10787;53.364;-1.480;2023-05-16T08:39:18;7.22;;;3.20;;
21258;SDS011;10787;53.364;-1.480;2023-05-16T08:42:02;8.43;;;3.60;;
21258;SDS011;10787;53.364;-1.480;2023-05-16T08:44:48;7.07;;;3.05;;
21258;SDS011;10787;53.364;-1.480;2023-05-16T08:47:32;8.13;;;3.30;;
21258;SDS011;10787;53.364;-1.480;2023-05-16T08:50:19;6.88;;;3.28;;
21258;SDS011;10787;53.364;-1.480;2023-05-16T08:53:06;10.98;;;3.50;;
21258;SDS011;10787;53.364;-1.480;2023-05-16T08:55:52;7.93;;;3.47;;
21258;SDS011;10787;53.364;-1.480;2023-05-16T08:58:36;10.82;;;3.53;;
21258;SDS011;10787;53.364;-1.480;2023-05-16T09:01:22;7.60;;;3.38;;
21258;SDS011;10787;53.364;-1.480;2023-05-16T09:04:07;7.55;;;3.50;;
21258;SDS011;10787;53.364;-1.480;2023-05-16T09:06:52;8.82;;;3.60;;
21258;SDS011;10787;53.364;-1.480;2023-05-16T09:09:37;8.85;;;3.45;;
21258;SDS011;10787;53.364;-1.480;2023-05-16T09:12:21;7.50;;;3.92;;
21258;SDS011;10787;53.364;-1.480;2023-05-16T09:15:06;10.85;;;4.10;;
21258;SDS011;10787;53.364;-1.480;2023-05-16T09:17:52;9.32;;;4.20;;
21258;SDS011;10787;53.364;-1.480;2023-05-16T09:20:37;9.05;;;3.80;;
21258;SDS011;10787;53.364;-1.480;2023-05-16T09:23:29;9.80;;;4.45;;
21258;SDS011;10787;53.364;-1.480;2023-05-16T09:26:14;7.03;;;4.10;;
21258;SDS011;10787;53.364;-1.480;2023-05-16T09:28:58;8.45;;;4.05;;
21258;SDS011;10787;53.364;-1.480;2023-05-16T09:31:43;5.78;;;3.67;;
21258;SDS011;10787;53.364;-1.480;2023-05-16T09:34:27;6.70;;;3.72;;
21258;SDS011;10787;53.364;-1.480;2023-05-16T09:37:12;8.02;;;3.83;;
21258;SDS011;10787;53.364;-1.480;2023-05-16T09:39:57;6.88;;;3.67;;
21258;SDS011;10787;53.364;-1.480;2023-05-16T09:42:41;8.18;;;4.25;;
21258;SDS011;10787;53.364;-1.480;2023-05-16T09:45:26;12.50;;;4.93;;
21258;SDS011;10787;53.364;-1.480;2023-05-16T09:48:11;7.55;;;4.10;;
21258;SDS011;10787;53.364;-1.480;2023-05-16T09:50:57;9.32;;;4.38;;
21258;SDS011;10787;53.364;-1.480;2023-05-16T09:53:46;8.93;;;4.10;;
21258;SDS011;10787;53.364;-1.480;2023-05-16T09:56:31;10.00;;;4.28;;
21258;SDS011;10787;53.364;-1.480;2023-05-16T09:59:15;9.48;;;4.45;;
21258;SDS011;10787;53.364;-1.480;2023-05-16T10:02:00;10.88;;;5.03;;
21258;SDS011;10787;53.364;-1.480;2023-05-16T10:04:45;9.88;;;4.75;;
21258;SDS011;10787;53.364;-1.480;2023-05-16T10:07:30;9.77;;;4.32;;
21258;SDS011;10787;53.364;-1.480;2023-05-16T10:10:16;9.13;;;4.60;;
21258;SDS011;10787;53.364;-1.480;2023-05-16T10:13:00;11.73;;;4.45;;
21258;SDS011;10787;53.364;-1.480;2023-05-16T10:15:48;9.90;;;4.30;;
21258;SDS011;10787;53.364;-1.480;2023-05-16T10:18:34;9.73;;;4.30;;
21258;SDS011;10787;53.364;-1.480;2023-05-16T10:21:21;8.20;;;4.38;;
21258;SDS011;10787;53.364;-1.480;2023-05-16T10:24:06;8.48;;;4.28;;
21258;SDS011;10787;53.364;-1.480;2023-05-16T10:26:54;9.63;;;4.80;;
21258;SDS011;10787;53.364;-1.480;2023-05-16T10:29:39;14.35;;;4.47;;
21258;SDS011;10787;53.364;-1.480;2023-05-16T10:32:24;11.20;;;4.13;;
21258;SDS011;10787;53.364;-1.480;2023-05-16T10:35:10;11.38;;;4.45;;
21258;SDS011;10787;53.364;-1.480;2023-05-16T10:37:54;24.55;;;5.47;;
21258;SDS011;10787;53.364;-1.480;2023-05-16T10:40:40;10.05;;;4.43;;
21258;SDS011;10787;53.364;-1.480;2023-05-16T10:43:26;10.75;;;4.75;;
21258;SDS011;10787;53.364;-1.480;2023-05-16T10:46:13;9.65;;;4.80;;
21258;SDS011;10787;53.364;-1.480;2023-05-16T10:48:58;11.18;;;4.40;;
21258;SDS011;10787;53.364;-1.480;2023-05-16T10:51:42;9.13;;;4.57;;
21258;SDS011;10787;53.364;-1.480;2023-05-16T10:54:32;11.63;;;5.00;;
21258;SDS011;10787;53.364;-1.480;2023-05-16T10:57:24;14.85;;;5.38;;
21258;SDS011;10787;53.364;-1.480;2023-05-16T11:00:08;11.98;;;4.80;;
21258;SDS011;10787;53.364;-1.480;2023-05-16T11:03:05;13.55;;;4.93;;
21258;SDS011;10787;53.364;-1.480;2023-05-16T11:06:07;12.43;;;4.45;;
21258;SDS011;10787;53.364;-1.480;2023-05-16T11:11:57;11.60;;;4.28;;
21258;SDS011;10787;53.364;-1.480;2023-05-16T11:14:42;8.80;;;4.38;;
21258;SDS011;10787;53.364;-1.480;2023-05-16T11:17:27;10.80;;;4.80;;
21258;SDS011;10787;53.364;-1.480;2023-05-16T11:20:30;10.05;;;4.80;;
21258;SDS011;10787;53.364;-1.480;2023-05-16T11:23:22;8.95;;;4.22;;
21258;SDS011;10787;53.364;-1.480;2023-05-16T11:26:08;14.52;;;4.85;;
21258;SDS011;10787;53.364;-1.480;2023-05-16T11:28:52;17.60;;;4.65;;
21258;SDS011;10787;53.364;-1.480;2023-05-16T11:31:38;12.77;;;4.50;;
21258;SDS011;10787;53.364;-1.480;2023-05-16T11:34:23;12.10;;;4.50;;
21258;SDS011;10787;53.364;-1.480;2023-05-16T11:37:09;10.13;;;4.00;;
21258;SDS011;10787;53.364;-1.480;2023-05-16T11:40:13;9.20;;;3.85;;
21258;SDS011;10787;53.364;-1.480;2023-05-16T11:42:59;11.20;;;4.00;;
21258;SDS011;10787;53.364;-1.480;2023-05-16T11:45:52;9.15;;;3.70;;
21258;SDS011;10787;53.364;-1.480;2023-05-16T11:48:37;8.98;;;3.90;;
21258;SDS011;10787;53.364;-1.480;2023-05-16T11:51:21;8.52;;;3.70;;
21258;SDS011;10787;53.364;-1.480;2023-05-16T11:54:09;8.10;;;3.70;;
21258;SDS011;10787;53.364;-1.480;2023-05-16T11:56:55;9.05;;;3.88;;
21258;SDS011;10787;53.364;-1.480;2023-05-16T11:59:40;9.25;;;3.70;;
21258;SDS011;10787;53.364;-1.480;2023-05-16T12:02:27;10.68;;;4.03;;
21258;SDS011;10787;53.364;-1.480;2023-05-16T12:05:12;6.32;;;3.17;;
21258;SDS011;10787;53.364;-1.480;2023-05-16T12:07:57;6.88;;;3.38;;
21258;SDS011;10787;53.364;-1.480;2023-05-16T12:10:42;6.28;;;3.20;;
21258;SDS011;10787;53.364;-1.480;2023-05-16T12:13:27;9.68;;;3.40;;
21258;SDS011;10787;53.364;-1.480;2023-05-16T12:16:11;7.00;;;3.33;;
21258;SDS011;10787;53.364;-1.480;2023-05-16T12:18:55;10.75;;;3.67;;
21258;SDS011;10787;53.364;-1.480;2023-05-16T12:21:40;10.90;;;3.58;;
21258;SDS011;10787;53.364;-1.480;2023-05-16T12:24:30;10.05;;;3.40;;
21258;SDS011;10787;53.364;-1.480;2023-05-16T12:27:20;10.90;;;3.63;;
21258;SDS011;10787;53.364;-1.480;2023-05-16T12:30:08;9.75;;;3.67;;
21258;SDS011;10787;53.364;-1.480;2023-05-16T12:33:00;9.90;;;4.13;;
21258;SDS011;10787;53.364;-1.480;2023-05-16T12:35:46;7.82;;;3.42;;
21258;SDS011;10787;53.364;-1.480;2023-05-16T12:38:30;9.98;;;3.67;;
21258;SDS011;10787;53.364;-1.480;2023-05-16T12:41:18;7.03;;;3.30;;
21258;SDS011;10787;53.364;-1.480;2023-05-16T12:44:11;7.15;;;3.47;;
21258;SDS011;10787;53.364;-1.480;2023-05-16T12:46:57;12.68;;;3.83;;
21258;SDS011;10787;53.364;-1.480;2023-05-16T12:49:45;9.65;;;3.90;;
21258;SDS011;10787;53.364;-1.480;2023-05-16T12:52:30;10.52;;;3.85;;
21258;SDS011;10787;53.364;-1.480;2023-05-16T12:55:16;9.05;;;3.75;;
21258;SDS011;10787;53.364;-1.480;2023-05-16T12:58:01;8.45;;;3.90;;
21258;SDS011;10787;53.364;-1.480;2023-05-16T13:00:45;7.75;;;3.70;;
21258;SDS011;10787;53.364;-1.480;2023-05-16T13:03:31;11.15;;;4.00;;
21258;SDS011;10787;53.364;-1.480;2023-05-16T13:06:17;8.57;;;3.80;;
21258;SDS011;10787;53.364;-1.480;2023-05-16T13:09:01;10.60;;;4.22;;
21258;SDS011;10787;53.364;-1.480;2023-05-16T13:11:46;9.75;;;3.95;;
21258;SDS011;10787;53.364;-1.480;2023-05-16T13:14:31;10.23;;;3.95;;
21258;SDS011;10787;53.364;-1.480;2023-05-16T13:17:15;9.98;;;4.30;;
21258;SDS011;10787;53.364;-1.480;2023-05-16T13:19:59;12.18;;;4.05;;
21258;SDS011;10787;53.364;-1.480;2023-05-16T13:22:45;9.10;;;4.10;;
21258;SDS011;10787;53.364;-1.480;2023-05-16T13:25:30;7.25;;;3.53;;
21258;SDS011;10787;53.364;-1.480;2023-05-16T13:28:16;14.40;;;3.88;;
21258;SDS011;10787;53.364;-1.480;2023-05-16T13:31:00;9.35;;;3.67;;
21258;SDS011;10787;53.364;-1.480;2023-05-16T13:33:44;6.07;;;3.30;;
21258;SDS011;10787;53.364;-1.480;2023-05-16T13:36:28;8.98;;;3.50;;
21258;SDS011;10787;53.364;-1.480;2023-05-16T13:39:13;9.43;;;3.63;;
21258;SDS011;10787;53.364;-1.480;2023-05-16T13:41:58;6.60;;;3.50;;
21258;SDS011;10787;53.364;-1.480;2023-05-16T13:44:42;9.98;;;3.90;;
21258;SDS011;10787;53.364;-1.480;2023-05-16T13:47:27;13.50;;;4.15;;
21258;SDS011;10787;53.364;-1.480;2023-05-16T13:50:11;9.13;;;3.80;;
21258;SDS011;10787;53.364;-1.480;2023-05-16T13:52:56;8.45;;;3.67;;
21258;SDS011;10787;53.364;-1.480;2023-05-16T13:55:39;10.60;;;3.40;;
21258;SDS011;10787;53.364;-1.480;2023-05-16T13:58:24;6.63;;;3.53;;
21258;SDS011;10787;53.364;-1.480;2023-05-16T14:01:09;7.53;;;3.30;;
21258;SDS011;10787;53.364;-1.480;2023-05-16T14:03:54;6.68;;;3.28;;
21258;SDS011;10787;53.364;-1.480;2023-05-16T14:06:39;7.97;;;3.35;;
21258;SDS011;10787;53.364;-1.480;2023-05-16T14:09:24;6.32;;;3.10;;
21258;SDS011;10787;53.364;-1.480;2023-05-16T14:12:08;6.97;;;3.47;;
21258;SDS011;10787;53.364;-1.480;2023-05-16T14:14:52;8.65;;;3.20;;
21258;SDS011;10787;53.364;-1.480;2023-05-16T14:17:37;9.05;;;3.50;;
21258;SDS011;10787;53.364;-1.480;2023-05-16T14:20:21;8.90;;;3.35;;
21258;SDS011;10787;53.364;-1.480;2023-05-16T14:23:06;9.00;;;3.40;;
21258;SDS011;10787;53.364;-1.480;2023-05-16T14:25:50;7.15;;;3.83;;
21258;SDS011;10787;53.364;-1.480;2023-05-16T14:28:35;9.27;;;4.15;;
21258;SDS011;10787;53.364;-1.480;2023-05-16T14:31:19;5.32;;;3.40;;
21258;SDS011;10787;53.364;-1.480;2023-05-16T14:34:04;7.82;;;3.67;;
21258;SDS011;10787;53.364;-1.480;2023-05-16T14:36:48;6.25;;;3.60;;
21258;SDS011;10787;53.364;-1.480;2023-05-16T14:39:33;5.70;;;3.45;;
21258;SDS011;10787;53.364;-1.480;2023-05-16T14:42:18;6.63;;;3.63;;
21258;SDS011;10787;53.364;-1.480;2023-05-16T14:45:02;7.57;;;3.65;;
21258;SDS011;10787;53.364;-1.480;2023-05-16T14:47:47;10.57;;;3.70;;
21258;SDS011;10787;53.364;-1.480;2023-05-16T14:50:32;9.32;;;3.70;;
21258;SDS011;10787;53.364;-1.480;2023-05-16T14:53:16;9.10;;;3.95;;
21258;SDS011;10787;53.364;-1.480;2023-05-16T14:56:00;8.25;;;3.85;;
21258;SDS011;10787;53.364;-1.480;2023-05-16T14:58:46;8.95;;;3.72;;
21258;SDS011;10787;53.364;-1.480;2023-05-16T15:01:30;8.00;;;4.15;;
21258;SDS011;10787;53.364;-1.480;2023-05-16T15:04:14;8.23;;;3.85;;
21258;SDS011;10787;53.364;-1.480;2023-05-16T15:06:58;8.20;;;3.78;;
21258;SDS011;10787;53.364;-1.480;2023-05-16T15:09:42;7.28;;;3.85;;
21258;SDS011;10787;53.364;-1.480;2023-05-16T15:12:27;7.07;;;4.13;;
21258;SDS011;10787;53.364;-1.480;2023-05-16T15:15:12;5.68;;;3.50;;
21258;SDS011;10787;53.364;-1.480;2023-05-16T15:17:56;8.60;;;3.88;;
21258;SDS011;10787;53.364;-1.480;2023-05-16T15:20:40;10.55;;;4.13;;
21258;SDS011;10787;53.364;-1.480;2023-05-16T15:23:24;7.22;;;3.97;;
21258;SDS011;10787;53.364;-1.480;2023-05-16T15:26:08;7.18;;;3.75;;
21258;SDS011;10787;53.364;-1.480;2023-05-16T15:28:53;10.45;;;4.20;;
21258;SDS011;10787;53.364;-1.480;2023-05-16T15:31:38;9.10;;;4.38;;
21258;SDS011;10787;53.364;-1.480;2023-05-16T15:34:23;9.98;;;4.90;;
21258;SDS011;10787;53.364;-1.480;2023-05-16T15:37:09;11.77;;;4.50;;
21258;SDS011;10787;53.364;-1.480;2023-05-16T15:39:53;9.02;;;4.50;;
21258;SDS011;10787;53.364;-1.480;2023-05-16T15:42:37;8.18;;;4.10;;
21258;SDS011;10787;53.364;-1.480;2023-05-16T15:45:22;11.70;;;4.50;;
21258;SDS011;10787;53.364;-1.480;2023-05-16T15:48:06;9.13;;;4.00;;
21258;SDS011;10787;53.364;-1.480;2023-05-16T15:50:50;8.70;;;4.30;;
21258;SDS011;10787;53.364;-1.480;2023-05-16T15:53:36;7.70;;;3.97;;
21258;SDS011;10787;53.364;-1.480;2023-05-16T15:56:20;10.55;;;4.28;;
21258;SDS011;10787;53.364;-1.480;2023-05-16T15:59:04;9.30;;;4.20;;
21258;SDS011;10787;53.364;-1.480;2023-05-16T16:01:48;10.65;;;3.88;;
21258;SDS011;10787;53.364;-1.480;2023-05-16T16:04:32;10.98;;;4.22;;
21258;SDS011;10787;53.364;-1.480;2023-05-16T16:07:16;9.60;;;4.22;;
21258;SDS011;10787;53.364;-1.480;2023-05-16T16:10:01;9.32;;;3.90;;
21258;SDS011;10787;53.364;-1.480;2023-05-16T16:12:56;8.48;;;3.95;;
21258;SDS011;10787;53.364;-1.480;2023-05-16T16:15:45;8.32;;;4.20;;
21258;SDS011;10787;53.364;-1.480;2023-05-16T16:18:29;8.07;;;3.90;;
21258;SDS011;10787;53.364;-1.480;2023-05-16T16:21:14;8.25;;;3.90;;
21258;SDS011;10787;53.364;-1.480;2023-05-16T16:23:58;8.77;;;4.15;;
21258;SDS011;10787;53.364;-1.480;2023-05-16T16:26:43;12.25;;;4.78;;
21258;SDS011;10787;53.364;-1.480;2023-05-16T16:29:27;8.02;;;3.92;;
21258;SDS011;10787;53.364;-1.480;2023-05-16T16:32:11;9.20;;;5.45;;
21258;SDS011;10787;53.364;-1.480;2023-05-16T16:34:56;12.63;;;4.32;;